createdAt,value
2018-08-30T00:00:20.546Z,0
2018-08-30T00:01:22.874Z,0
2018-08-30T00:02:24.897Z,0
2018-08-30T00:03:26.932Z,0
2018-08-30T00:04:28.966Z,0
2018-08-30T00:05:31.285Z,0
2018-08-30T00:06:33.309Z,0
2018-08-30T00:07:35.345Z,0
2018-08-30T00:08:37.382Z,0
2018-08-30T00:09:39.421Z,0
2018-08-30T00:10:41.443Z,0
2018-08-30T00:11:43.482Z,0
2018-08-30T00:12:45.803Z,0
2018-08-30T00:13:48.113Z,0
2018-08-30T00:14:50.452Z,0
2018-08-30T00:15:52.482Z,0
2018-08-30T00:16:54.515Z,0
2018-08-30T00:17:56.550Z,0
2018-08-30T00:18:58.591Z,0
2018-08-30T00:20:00.625Z,0
2018-08-30T00:21:02.941Z,0
2018-08-30T00:22:04.979Z,0
2018-08-30T00:23:06.999Z,0
2018-08-30T00:24:09.037Z,0
2018-08-30T00:25:11.073Z,0
2018-08-30T00:26:13.104Z,0
2018-08-30T00:27:15.139Z,0
2018-08-30T00:28:17.472Z,0
2018-08-30T00:29:19.505Z,0
2018-08-30T00:30:21.549Z,0
2018-08-30T00:31:23.583Z,0
2018-08-30T00:32:26.455Z,0
2018-08-30T00:33:28.491Z,0
2018-08-30T00:34:30.534Z,0
2018-08-30T00:35:32.560Z,0
2018-08-30T00:36:34.595Z,0
2018-08-30T00:37:36.633Z,0
2018-08-30T00:38:38.660Z,0
2018-08-30T00:39:40.708Z,0
2018-08-30T00:40:42.746Z,0
2018-08-30T00:41:44.781Z,0
2018-08-30T00:42:46.810Z,0
2018-08-30T00:43:48.860Z,0
2018-08-30T00:44:50.890Z,0
2018-08-30T00:45:52.925Z,0
2018-08-30T00:46:54.966Z,0
2018-08-30T00:47:56.992Z,0
2018-08-30T00:48:59.038Z,0
2018-08-30T00:50:01.071Z,0
2018-08-30T00:51:03.107Z,0
2018-08-30T00:52:05.133Z,0
2018-08-30T00:53:07.171Z,0
2018-08-30T00:54:09.209Z,0
2018-08-30T00:55:11.638Z,0
2018-08-30T00:56:13.683Z,0
2018-08-30T00:57:15.710Z,0
2018-08-30T00:58:17.744Z,0
2018-08-30T00:59:19.783Z,0
2018-08-30T01:00:21.817Z,0
2018-08-30T01:01:24.135Z,0
2018-08-30T01:02:26.172Z,0
2018-08-30T01:03:28.205Z,0
2018-08-30T01:04:30.240Z,0
2018-08-30T01:05:32.278Z,0
2018-08-30T01:06:34.313Z,0
2018-08-30T01:07:36.623Z,0
2018-08-30T01:08:38.671Z,0
2018-08-30T01:09:40.704Z,0
2018-08-30T01:10:43.019Z,0
2018-08-30T01:11:45.060Z,0
2018-08-30T01:12:47.089Z,0
2018-08-30T01:13:49.126Z,0
2018-08-30T01:14:51.163Z,0
2018-08-30T01:15:53.204Z,0
2018-08-30T01:16:55.615Z,0
2018-08-30T01:17:57.939Z,0
2018-08-30T01:18:59.974Z,0
2018-08-30T01:20:02.388Z,0
2018-08-30T01:21:05.099Z,0
2018-08-30T01:22:07.424Z,0
2018-08-30T01:23:09.460Z,0
2018-08-30T01:24:11.493Z,0
2018-08-30T01:25:13.801Z,0
2018-08-30T01:26:15.844Z,0
2018-08-30T01:27:18.203Z,0
2018-08-30T01:28:20.239Z,0
2018-08-30T01:29:22.283Z,0
2018-08-30T01:30:24.312Z,0
2018-08-30T01:31:26.347Z,0
2018-08-30T01:32:28.540Z,0
2018-08-30T01:33:30.574Z,0
2018-08-30T01:34:32.604Z,0
2018-08-30T01:35:34.641Z,0
2018-08-30T01:36:36.672Z,0
2018-08-30T01:37:39.016Z,0
2018-08-30T01:38:41.060Z,0
2018-08-30T01:39:43.095Z,0
2018-08-30T01:40:45.129Z,0
2018-08-30T01:41:47.175Z,0
2018-08-30T01:42:49.207Z,0
2018-08-30T01:43:51.240Z,0
2018-08-30T01:44:53.277Z,0
2018-08-30T01:45:55.298Z,0
2018-08-30T01:46:57.332Z,0
2018-08-30T01:47:59.368Z,0
2018-08-30T01:49:01.703Z,0
2018-08-30T01:50:03.730Z,0
2018-08-30T01:51:05.769Z,0
2018-08-30T01:52:07.805Z,0
2018-08-30T01:53:09.835Z,0
2018-08-30T01:54:11.880Z,0
2018-08-30T01:55:13.913Z,0
2018-08-30T01:56:15.949Z,0
2018-08-30T01:57:17.984Z,0
2018-08-30T01:58:20.029Z,0
2018-08-30T01:59:22.066Z,0
2018-08-30T02:00:24.097Z,0
2018-08-30T02:01:26.129Z,0
2018-08-30T02:02:28.174Z,0
2018-08-30T02:03:30.201Z,0
2018-08-30T02:04:32.236Z,0
2018-08-30T02:05:34.275Z,0
2018-08-30T02:06:36.310Z,0
2018-08-30T02:07:38.722Z,0
2018-08-30T02:08:40.753Z,0
2018-08-30T02:09:42.782Z,0
2018-08-30T02:10:44.818Z,0
2018-08-30T02:11:47.247Z,0
2018-08-30T02:12:49.285Z,0
2018-08-30T02:13:51.314Z,0
2018-08-30T02:14:53.352Z,0
2018-08-30T02:15:55.671Z,0
2018-08-30T02:16:57.708Z,0
2018-08-30T02:17:59.745Z,0
2018-08-30T02:19:02.153Z,0
2018-08-30T02:20:04.192Z,0
2018-08-30T02:21:06.226Z,0
2018-08-30T02:22:08.264Z,0
2018-08-30T02:23:10.288Z,0
2018-08-30T02:24:12.336Z,0
2018-08-30T02:25:14.417Z,0
2018-08-30T02:26:16.400Z,0
2018-08-30T02:27:18.446Z,0
2018-08-30T02:28:21.150Z,0
2018-08-30T02:29:23.186Z,0
2018-08-30T02:30:25.821Z,0
2018-08-30T02:31:27.863Z,0
2018-08-30T02:32:29.893Z,0
2018-08-30T02:33:31.926Z,0
2018-08-30T02:34:33.963Z,0
2018-08-30T02:35:35.987Z,0
2018-08-30T02:36:38.308Z,0
2018-08-30T02:37:40.341Z,0
2018-08-30T02:38:42.375Z,0
2018-08-30T02:39:44.414Z,0
2018-08-30T02:40:46.444Z,0
2018-08-30T02:41:48.478Z,0
2018-08-30T02:42:51.172Z,0
2018-08-30T02:43:53.212Z,0
2018-08-30T02:44:55.252Z,0
2018-08-30T02:45:57.287Z,0
2018-08-30T02:46:59.320Z,0
2018-08-30T02:48:01.364Z,0
2018-08-30T02:49:03.933Z,0
2018-08-30T02:50:05.828Z,0
2018-08-30T02:51:08.170Z,0
2018-08-30T02:52:10.193Z,0
2018-08-30T02:53:12.515Z,0
2018-08-30T02:54:14.548Z,0
2018-08-30T02:55:16.588Z,0
2018-08-30T02:56:18.611Z,0
2018-08-30T02:57:20.653Z,0
2018-08-30T02:58:22.980Z,0
2018-08-30T02:59:25.010Z,0
2018-08-30T03:00:27.462Z,0
2018-08-30T03:01:29.769Z,0
2018-08-30T03:02:31.802Z,0
2018-08-30T03:03:33.835Z,0
2018-08-30T03:04:36.171Z,0
2018-08-30T03:05:38.195Z,0
2018-08-30T03:06:40.229Z,0
2018-08-30T03:07:42.274Z,0
2018-08-30T03:08:44.599Z,0
2018-08-30T03:09:46.635Z,0
2018-08-30T03:10:48.668Z,0
2018-08-30T03:11:50.693Z,0
2018-08-30T03:12:52.726Z,0
2018-08-30T03:13:54.767Z,0
2018-08-30T03:14:57.080Z,0
2018-08-30T03:15:59.113Z,0
2018-08-30T03:17:01.145Z,0
2018-08-30T03:18:03.174Z,0
2018-08-30T03:19:05.205Z,0
2018-08-30T03:20:07.241Z,0
2018-08-30T03:21:09.262Z,0
2018-08-30T03:22:11.296Z,0
2018-08-30T03:23:13.719Z,0
2018-08-30T03:24:15.744Z,0
2018-08-30T03:25:17.789Z,0
2018-08-30T03:26:19.825Z,0
2018-08-30T03:27:21.857Z,0
2018-08-30T03:28:23.885Z,0
2018-08-30T03:29:26.212Z,0
2018-08-30T03:30:28.794Z,0
2018-08-30T03:31:31.012Z,0
2018-08-30T03:32:33.690Z,0
2018-08-30T03:33:36.380Z,0
2018-08-30T03:34:38.418Z,0
2018-08-30T03:35:40.454Z,0
2018-08-30T03:36:42.876Z,0
2018-08-30T03:37:44.899Z,0
2018-08-30T03:38:46.938Z,0
2018-08-30T03:39:48.969Z,0
2018-08-30T03:40:51.387Z,0
2018-08-30T03:41:53.429Z,0
2018-08-30T03:42:56.024Z,0
2018-08-30T03:43:58.359Z,0
2018-08-30T03:45:00.402Z,0
2018-08-30T03:46:02.435Z,0
2018-08-30T03:47:05.525Z,0
2018-08-30T03:48:07.399Z,0
2018-08-30T03:49:09.711Z,0
2018-08-30T03:50:12.407Z,0
2018-08-30T03:51:14.732Z,0
2018-08-30T03:52:16.768Z,0
2018-08-30T03:53:19.090Z,0
2018-08-30T03:54:21.114Z,0
2018-08-30T03:55:23.148Z,0
2018-08-30T03:56:25.481Z,0
2018-08-30T03:57:27.793Z,0
2018-08-30T03:58:29.840Z,0
2018-08-30T03:59:32.489Z,0
2018-08-30T04:00:34.506Z,0
2018-08-30T04:01:36.531Z,0
2018-08-30T04:02:38.581Z,0
2018-08-30T04:03:41.209Z,0
2018-08-30T04:04:43.527Z,0
2018-08-30T04:05:45.851Z,0
2018-08-30T04:06:47.873Z,0
2018-08-30T04:07:49.909Z,0
2018-08-30T04:08:51.943Z,0
2018-08-30T04:09:53.975Z,0
2018-08-30T04:10:55.996Z,0
2018-08-30T04:11:58.333Z,0
2018-08-30T04:13:00.367Z,0
2018-08-30T04:14:02.398Z,0
2018-08-30T04:15:04.440Z,0
2018-08-30T04:16:06.470Z,0
2018-08-30T04:17:09.188Z,0
2018-08-30T04:18:11.225Z,0
2018-08-30T04:19:13.254Z,0
2018-08-30T04:20:15.277Z,0
2018-08-30T04:21:17.595Z,0
2018-08-30T04:22:19.623Z,0
2018-08-30T04:23:21.659Z,0
2018-08-30T04:24:24.081Z,0
2018-08-30T04:25:26.114Z,0
2018-08-30T04:26:28.140Z,0
2018-08-30T04:27:30.184Z,0
2018-08-30T04:28:32.214Z,0
2018-08-30T04:29:34.247Z,0
2018-08-30T04:30:36.287Z,0
2018-08-30T04:31:38.413Z,0
2018-08-30T04:32:40.514Z,0
2018-08-30T04:33:43.211Z,0
2018-08-30T04:34:45.528Z,0
2018-08-30T04:35:47.877Z,0
2018-08-30T04:36:50.289Z,0
2018-08-30T04:37:52.703Z,0
2018-08-30T04:38:54.738Z,0
2018-08-30T04:39:57.042Z,0
2018-08-30T04:40:59.077Z,0
2018-08-30T04:42:01.111Z,0
2018-08-30T04:43:03.430Z,0
2018-08-30T04:44:05.736Z,0
2018-08-30T04:45:07.767Z,0
2018-08-30T04:46:09.799Z,0
2018-08-30T04:47:12.113Z,0
2018-08-30T04:48:14.447Z,0
2018-08-30T04:49:16.475Z,1
2018-08-30T04:50:19.025Z,1
2018-08-30T04:51:20.929Z,1
2018-08-30T04:52:22.963Z,1
2018-08-30T04:53:24.990Z,1
2018-08-30T04:54:27.417Z,1
2018-08-30T04:55:29.447Z,1
2018-08-30T04:56:31.476Z,1
2018-08-30T04:57:33.901Z,1
2018-08-30T04:58:35.928Z,1
2018-08-30T04:59:37.961Z,1
2018-08-30T05:00:40.391Z,1
2018-08-30T05:01:42.444Z,1
2018-08-30T05:02:44.457Z,1
2018-08-30T05:03:46.499Z,1
2018-08-30T05:04:48.522Z,1
2018-08-30T05:05:50.548Z,1
2018-08-30T05:06:52.867Z,1
2018-08-30T05:07:54.903Z,1
2018-08-30T05:08:56.934Z,1
2018-08-30T05:09:59.380Z,1
2018-08-30T05:11:01.396Z,1
2018-08-30T05:12:03.826Z,1
2018-08-30T05:13:05.846Z,1
2018-08-30T05:14:08.170Z,1
2018-08-30T05:15:10.201Z,1
2018-08-30T05:16:12.231Z,1
2018-08-30T05:17:14.636Z,1
2018-08-30T05:18:16.670Z,1
2018-08-30T05:19:18.699Z,1
2018-08-30T05:20:20.729Z,1
2018-08-30T05:21:22.770Z,1
2018-08-30T05:22:25.072Z,1
2018-08-30T05:23:27.104Z,2
2018-08-30T05:24:29.141Z,2
2018-08-30T05:25:31.173Z,2
2018-08-30T05:26:33.203Z,2
2018-08-30T05:27:35.235Z,2
2018-08-30T05:28:37.261Z,2
2018-08-30T05:29:39.593Z,2
2018-08-30T05:30:41.623Z,2
2018-08-30T05:31:43.650Z,2
2018-08-30T05:32:45.961Z,3
2018-08-30T05:33:48.680Z,3
2018-08-30T05:34:50.993Z,3
2018-08-30T05:35:53.066Z,3
2018-08-30T05:36:55.062Z,3
2018-08-30T05:37:57.470Z,3
2018-08-30T05:38:59.507Z,3
2018-08-30T05:40:01.541Z,2
2018-08-30T05:41:04.175Z,2
2018-08-30T05:42:06.195Z,2
2018-08-30T05:43:08.523Z,2
2018-08-30T05:44:10.556Z,3
2018-08-30T05:45:12.584Z,3
2018-08-30T05:46:14.627Z,4
2018-08-30T05:47:16.656Z,5
2018-08-30T05:48:18.689Z,5
2018-08-30T05:49:20.721Z,5
2018-08-30T05:50:23.048Z,5
2018-08-30T05:51:25.090Z,6
2018-08-30T05:52:27.121Z,6
2018-08-30T05:53:29.158Z,7
2018-08-30T05:54:31.177Z,7
2018-08-30T05:55:33.215Z,8
2018-08-30T05:56:35.247Z,8
2018-08-30T05:57:37.275Z,9
2018-08-30T05:58:39.305Z,9
2018-08-30T05:59:41.341Z,9
2018-08-30T06:00:43.661Z,10
2018-08-30T06:01:45.698Z,10
2018-08-30T06:02:47.730Z,11
2018-08-30T06:03:49.756Z,12
2018-08-30T06:04:51.787Z,13
2018-08-30T06:05:54.112Z,14
2018-08-30T06:06:56.134Z,14
2018-08-30T06:07:58.163Z,15
2018-08-30T06:09:00.198Z,16
2018-08-30T06:10:02.219Z,17
2018-08-30T06:11:04.266Z,17
2018-08-30T06:12:06.293Z,17
2018-08-30T06:13:08.808Z,16
2018-08-30T06:14:10.747Z,16
2018-08-30T06:15:12.791Z,16
2018-08-30T06:16:14.817Z,16
2018-08-30T06:17:16.853Z,16
2018-08-30T06:18:18.893Z,15
2018-08-30T06:19:21.206Z,15
2018-08-30T06:20:23.526Z,15
2018-08-30T06:21:25.557Z,15
2018-08-30T06:22:27.589Z,14
2018-08-30T06:23:29.610Z,14
2018-08-30T06:24:31.640Z,14
2018-08-30T06:25:34.063Z,15
2018-08-30T06:26:36.159Z,15
2018-08-30T06:27:38.123Z,16
2018-08-30T06:28:40.156Z,17
2018-08-30T06:29:42.186Z,18
2018-08-30T06:30:44.513Z,19
2018-08-30T06:31:46.542Z,20
2018-08-30T06:32:48.600Z,21
2018-08-30T06:33:50.998Z,22
2018-08-30T06:34:53.748Z,23
2018-08-30T06:35:55.782Z,24
2018-08-30T06:36:58.143Z,24
2018-08-30T06:38:00.175Z,24
2018-08-30T06:39:02.213Z,23
2018-08-30T06:40:04.516Z,23
2018-08-30T06:41:06.553Z,23
2018-08-30T06:42:08.582Z,22
2018-08-30T06:43:10.610Z,22
2018-08-30T06:44:12.653Z,23
2018-08-30T06:45:14.683Z,23
2018-08-30T06:46:17.005Z,22
2018-08-30T06:47:19.030Z,21
2018-08-30T06:48:21.073Z,20
2018-08-30T06:49:23.099Z,18
2018-08-30T06:50:25.133Z,17
2018-08-30T06:51:27.181Z,17
2018-08-30T06:52:29.505Z,16
2018-08-30T06:53:31.545Z,16
2018-08-30T06:54:33.583Z,16
2018-08-30T06:55:35.619Z,15
2018-08-30T06:56:37.643Z,15
2018-08-30T06:57:39.682Z,15
2018-08-30T06:58:41.999Z,14
2018-08-30T06:59:44.034Z,14
2018-08-30T07:00:46.077Z,13
2018-08-30T07:01:48.433Z,12
2018-08-30T07:02:50.813Z,11
2018-08-30T07:03:52.844Z,10
2018-08-30T07:04:54.878Z,10
2018-08-30T07:05:56.918Z,10
2018-08-30T07:06:58.952Z,9
2018-08-30T07:08:01.007Z,9
2018-08-30T07:09:03.319Z,10
2018-08-30T07:10:05.350Z,11
2018-08-30T07:11:26.653Z,12
2018-08-30T07:12:28.762Z,13
2018-08-30T07:13:30.845Z,13
2018-08-30T07:14:32.965Z,13
2018-08-30T07:15:35.048Z,13
2018-08-30T07:16:37.141Z,14
2018-08-30T07:17:39.259Z,14
2018-08-30T07:18:41.381Z,14
2018-08-30T07:19:43.865Z,14
2018-08-30T07:20:45.959Z,13
2018-08-30T07:21:48.078Z,13
2018-08-30T07:22:50.862Z,13
2018-08-30T07:23:52.961Z,13
2018-08-30T07:24:55.070Z,14
2018-08-30T07:25:57.157Z,15
2018-08-30T07:26:59.269Z,15
2018-08-30T07:28:01.661Z,16
2018-08-30T07:29:04.059Z,17
2018-08-30T07:30:06.141Z,18
2018-08-30T07:31:08.247Z,19
2018-08-30T07:32:10.350Z,20
2018-08-30T07:33:12.450Z,21
2018-08-30T07:34:14.632Z,22
2018-08-30T07:35:16.661Z,23
2018-08-30T07:36:18.760Z,23
2018-08-30T07:37:20.871Z,24
2018-08-30T07:38:22.973Z,24
2018-08-30T07:39:25.067Z,25
2018-08-30T07:40:27.166Z,26
2018-08-30T07:41:29.278Z,27
2018-08-30T07:42:31.384Z,28
2018-08-30T07:43:33.480Z,30
2018-08-30T07:44:35.613Z,30
2018-08-30T07:45:37.694Z,31
2018-08-30T07:46:39.786Z,33
2018-08-30T07:47:41.884Z,34
2018-08-30T07:48:44.013Z,36
2018-08-30T07:49:46.081Z,37
2018-08-30T07:50:48.553Z,38
2018-08-30T07:51:50.614Z,38
2018-08-30T07:52:52.715Z,36
2018-08-30T07:53:54.806Z,37
2018-08-30T07:54:56.921Z,41
2018-08-30T07:55:59.013Z,44
2018-08-30T07:57:01.116Z,46
2018-08-30T07:58:03.223Z,46
2018-08-30T07:59:05.317Z,46
2018-08-30T08:00:07.539Z,43
2018-08-30T08:01:09.527Z,39
2018-08-30T08:02:11.631Z,37
2018-08-30T08:03:13.720Z,37
2018-08-30T08:04:15.832Z,38
2018-08-30T08:05:17.932Z,40
2018-08-30T08:06:20.030Z,43
2018-08-30T08:07:22.862Z,45
2018-08-30T08:08:24.820Z,45
2018-08-30T08:09:26.923Z,45
2018-08-30T08:10:29.032Z,49
2018-08-30T08:11:31.157Z,51
2018-08-30T08:12:33.249Z,53
2018-08-30T08:13:35.338Z,54
2018-08-30T08:14:37.432Z,57
2018-08-30T08:15:39.535Z,59
2018-08-30T08:16:41.642Z,60
2018-08-30T08:17:43.739Z,59
2018-08-30T08:18:46.116Z,58
2018-08-30T08:19:48.230Z,55
2018-08-30T08:20:50.932Z,59
2018-08-30T08:21:53.029Z,60
2018-08-30T08:22:55.137Z,58
2018-08-30T08:23:57.225Z,56
2018-08-30T08:24:59.330Z,56
2018-08-30T08:26:01.425Z,53
2018-08-30T08:27:03.532Z,49
2018-08-30T08:28:05.618Z,47
2018-08-30T08:29:07.725Z,46
2018-08-30T08:30:09.823Z,48
2018-08-30T08:31:11.970Z,49
2018-08-30T08:32:14.033Z,45
2018-08-30T08:33:16.648Z,42
2018-08-30T08:34:18.751Z,43
2018-08-30T08:35:21.198Z,38
2018-08-30T08:36:23.317Z,32
2018-08-30T08:37:25.408Z,30
2018-08-30T08:38:27.518Z,32
2018-08-30T08:39:29.626Z,39
2018-08-30T08:40:32.003Z,40
2018-08-30T08:41:34.121Z,35
2018-08-30T08:42:36.899Z,36
2018-08-30T08:43:39.302Z,40
2018-08-30T08:44:41.796Z,44
2018-08-30T08:45:43.911Z,44
2018-08-30T08:46:46.410Z,43
2018-08-30T08:47:48.605Z,43
2018-08-30T08:48:50.635Z,40
2018-08-30T08:49:52.729Z,36
2018-08-30T08:50:54.845Z,29
2018-08-30T08:51:56.966Z,27
2018-08-30T08:52:59.075Z,26
2018-08-30T08:54:01.185Z,26
2018-08-30T08:55:03.694Z,27
2018-08-30T08:56:05.802Z,26
2018-08-30T08:57:07.892Z,24
2018-08-30T08:58:10.049Z,21
2018-08-30T08:59:12.203Z,19
2018-08-30T09:00:14.272Z,18
2018-08-30T09:01:16.419Z,19
2018-08-30T09:02:18.477Z,24
2018-08-30T09:03:20.577Z,28
2018-08-30T09:04:22.676Z,29
2018-08-30T09:05:24.911Z,28
2018-08-30T09:06:27.008Z,26
2018-08-30T09:07:29.170Z,25
2018-08-30T09:08:34.650Z,25
2018-08-30T09:09:37.115Z,28
2018-08-30T09:10:39.216Z,30
2018-08-30T09:11:41.328Z,33
2018-08-30T09:12:43.737Z,33
2018-08-30T09:13:46.251Z,32
2018-08-30T09:14:48.366Z,29
2018-08-30T09:15:51.182Z,27
2018-08-30T09:16:53.574Z,26
2018-08-30T09:17:55.732Z,26
2018-08-30T09:18:58.524Z,25
2018-08-30T09:20:01.020Z,24
2018-08-30T09:21:03.443Z,23
2018-08-30T09:22:05.664Z,25
2018-08-30T09:23:08.373Z,26
2018-08-30T09:24:11.107Z,28
2018-08-30T09:25:13.224Z,28
2018-08-30T09:26:15.538Z,28
2018-08-30T09:27:17.697Z,27
2018-08-30T09:28:19.757Z,26
2018-08-30T09:29:21.860Z,26
2018-08-30T09:30:24.265Z,27
2018-08-30T09:31:26.817Z,28
2018-08-30T09:32:28.917Z,27
2018-08-30T09:33:31.409Z,26
2018-08-30T09:34:33.609Z,24
2018-08-30T09:35:35.705Z,22
2018-08-30T09:36:37.810Z,20
2018-08-30T09:37:39.923Z,19
2018-08-30T09:38:42.306Z,17
2018-08-30T09:39:44.424Z,16
2018-08-30T09:40:47.135Z,15
2018-08-30T09:41:49.252Z,16
2018-08-30T09:42:51.342Z,16
2018-08-30T09:43:53.544Z,16
2018-08-30T09:44:55.557Z,15
2018-08-30T09:45:57.659Z,14
2018-08-30T09:47:00.076Z,13
2018-08-30T09:48:02.182Z,13
2018-08-30T09:49:04.285Z,13
2018-08-30T09:50:06.401Z,13
2018-08-30T09:51:08.507Z,13
2018-08-30T09:52:10.605Z,14
2018-08-30T09:53:12.850Z,15
2018-08-30T09:54:15.337Z,16
2018-08-30T09:55:17.855Z,18
2018-08-30T09:56:20.137Z,22
2018-08-30T09:57:22.434Z,26
2018-08-30T09:58:24.332Z,30
2018-08-30T09:59:26.447Z,32
2018-08-30T10:00:28.939Z,33
2018-08-30T10:01:31.054Z,32
2018-08-30T10:02:33.159Z,30
2018-08-30T10:03:35.649Z,29
2018-08-30T10:04:38.265Z,28
2018-08-30T10:05:40.356Z,28
2018-08-30T10:06:42.873Z,29
2018-08-30T10:07:44.980Z,31
2018-08-30T10:08:47.113Z,31
2018-08-30T10:09:49.235Z,30
2018-08-30T10:10:51.359Z,28
2018-08-30T10:11:54.195Z,29
2018-08-30T10:12:56.396Z,32
2018-08-30T10:13:58.818Z,33
2018-08-30T10:15:00.997Z,36
2018-08-30T10:16:03.705Z,40
2018-08-30T10:17:06.541Z,43
2018-08-30T10:18:08.656Z,42
2018-08-30T10:19:10.776Z,35
2018-08-30T10:20:13.195Z,29
2018-08-30T10:21:15.301Z,28
2018-08-30T10:22:17.811Z,29
2018-08-30T10:23:19.933Z,25
2018-08-30T10:24:22.076Z,19
2018-08-30T10:25:24.661Z,15
2018-08-30T10:26:26.818Z,14
2018-08-30T10:27:28.921Z,14
2018-08-30T10:28:31.024Z,15
2018-08-30T10:29:33.137Z,17
2018-08-30T10:30:35.253Z,23
2018-08-30T10:31:37.363Z,29
2018-08-30T10:32:39.467Z,22
2018-08-30T10:33:41.961Z,22
2018-08-30T10:34:44.072Z,27
2018-08-30T10:35:46.188Z,31
2018-08-30T10:36:48.317Z,31
2018-08-30T10:37:50.393Z,33
2018-08-30T10:38:52.887Z,28
2018-08-30T10:39:55.291Z,22
2018-08-30T10:40:57.382Z,21
2018-08-30T10:41:59.492Z,19
2018-08-30T10:43:02.528Z,17
2018-08-30T10:44:04.888Z,18
2018-08-30T10:45:06.991Z,21
2018-08-30T10:46:09.092Z,25
2018-08-30T10:47:12.178Z,25
2018-08-30T10:48:14.295Z,22
2018-08-30T10:49:16.902Z,21
2018-08-30T10:50:18.958Z,20
2018-08-30T10:51:21.067Z,19
2018-08-30T10:52:23.565Z,18
2018-08-30T10:53:25.658Z,20
2018-08-30T10:54:27.774Z,22
2018-08-30T10:55:29.881Z,22
2018-08-30T10:56:31.979Z,22
2018-08-30T10:57:34.082Z,22
2018-08-30T10:58:36.197Z,23
2018-08-30T10:59:38.302Z,25
2018-08-30T11:00:40.422Z,26
2018-08-30T11:01:42.819Z,26
2018-08-30T11:02:44.917Z,27
2018-08-30T11:03:47.081Z,26
2018-08-30T11:04:49.137Z,24
2018-08-30T11:05:51.235Z,21
2018-08-30T11:06:54.821Z,18
2018-08-30T11:07:57.288Z,16
2018-08-30T11:08:59.352Z,16
2018-08-30T11:10:02.559Z,17
2018-08-30T11:11:04.662Z,19
2018-08-30T11:12:06.771Z,21
2018-08-30T11:13:09.093Z,23
2018-08-30T11:14:10.985Z,27
2018-08-30T11:15:13.082Z,30
2018-08-30T11:16:15.207Z,33
2018-08-30T11:17:17.323Z,31
2018-08-30T11:18:19.414Z,28
2018-08-30T11:19:21.914Z,26
2018-08-30T11:20:23.963Z,26
2018-08-30T11:21:26.074Z,28
2018-08-30T11:22:28.164Z,27
2018-08-30T11:23:30.282Z,23
2018-08-30T11:24:32.386Z,21
2018-08-30T11:25:34.517Z,23
2018-08-30T11:26:36.965Z,27
2018-08-30T11:27:39.067Z,27
2018-08-30T11:28:41.170Z,27
2018-08-30T11:29:43.260Z,30
2018-08-30T11:30:45.409Z,32
2018-08-30T11:31:47.762Z,33
2018-08-30T11:32:49.862Z,36
2018-08-30T11:33:52.288Z,39
2018-08-30T11:34:54.788Z,40
2018-08-30T11:35:56.885Z,42
2018-08-30T11:36:58.982Z,42
2018-08-30T11:38:01.094Z,38
2018-08-30T11:39:03.186Z,32
2018-08-30T11:40:05.293Z,31
2018-08-30T11:41:07.429Z,29
2018-08-30T11:42:09.493Z,37
2018-08-30T11:43:12.022Z,36
2018-08-30T11:44:14.041Z,38
2018-08-30T11:45:16.138Z,41
2018-08-30T11:46:18.232Z,38
2018-08-30T11:47:20.347Z,34
2018-08-30T11:48:22.469Z,36
2018-08-30T11:49:24.571Z,31
2018-08-30T11:50:26.973Z,33
2018-08-30T11:51:29.368Z,29
2018-08-30T11:52:31.531Z,28
2018-08-30T11:53:33.944Z,32
2018-08-30T11:54:36.341Z,32
2018-08-30T11:55:38.428Z,33
2018-08-30T11:56:40.540Z,32
2018-08-30T11:57:43.028Z,28
2018-08-30T11:58:45.434Z,25
2018-08-30T11:59:47.546Z,21
2018-08-30T12:00:49.755Z,19
2018-08-30T12:01:51.751Z,23
2018-08-30T12:02:54.250Z,23
2018-08-30T12:03:56.356Z,18
2018-08-30T12:04:58.447Z,15
2018-08-30T12:06:00.553Z,11
2018-08-30T12:07:02.827Z,11
2018-08-30T12:08:05.258Z,18
2018-08-30T12:09:07.581Z,23
2018-08-30T12:10:09.728Z,23
2018-08-30T12:11:11.803Z,23
2018-08-30T12:12:13.882Z,21
2018-08-30T12:13:16.279Z,20
2018-08-30T12:14:18.386Z,17
2018-08-30T12:15:20.473Z,15
2018-08-30T12:16:22.587Z,15
2018-08-30T12:17:24.688Z,16
2018-08-30T12:18:27.106Z,18
2018-08-30T12:19:29.503Z,12
2018-08-30T12:20:31.724Z,12
2018-08-30T12:21:34.017Z,13
2018-08-30T12:22:36.407Z,18
2018-08-30T12:23:38.815Z,43
2018-08-30T12:24:40.911Z,44
2018-08-30T12:25:43.308Z,51
2018-08-30T12:26:45.419Z,54
2018-08-30T12:27:47.533Z,48
2018-08-30T12:28:49.945Z,41
2018-08-30T12:29:52.085Z,46
2018-08-30T12:30:54.148Z,54
2018-08-30T12:31:56.257Z,53
2018-08-30T12:32:59.154Z,59
2018-08-30T12:34:01.572Z,69
2018-08-30T12:35:03.803Z,67
2018-08-30T12:36:05.844Z,57
2018-08-30T12:37:07.922Z,63
2018-08-30T12:38:09.979Z,59
2018-08-30T12:39:13.108Z,57
2018-08-30T12:40:15.248Z,41
2018-08-30T12:41:17.308Z,35
2018-08-30T12:42:19.384Z,24
2018-08-30T12:43:21.560Z,32
2018-08-30T12:44:23.630Z,31
2018-08-30T12:45:26.087Z,28
2018-08-30T12:46:28.725Z,21
2018-08-30T12:47:31.537Z,14
2018-08-30T12:48:33.583Z,13
2018-08-30T12:49:36.058Z,11
2018-08-30T12:50:38.311Z,10
2018-08-30T12:51:40.500Z,9
2018-08-30T12:52:42.398Z,10
2018-08-30T12:53:44.603Z,11
2018-08-30T12:54:47.389Z,13
2018-08-30T12:55:49.575Z,14
2018-08-30T12:56:52.810Z,16
2018-08-30T12:57:55.436Z,17
2018-08-30T12:58:58.054Z,18
2018-08-30T13:00:00.214Z,20
2018-08-30T13:01:03.622Z,19
2018-08-30T13:02:06.989Z,19
2018-08-30T13:03:09.040Z,18
2018-08-30T13:04:11.362Z,20
2018-08-30T13:05:13.351Z,22
2018-08-30T13:06:15.646Z,21
2018-08-30T13:07:17.637Z,18
2018-08-30T13:08:20.504Z,19
2018-08-30T13:09:22.808Z,23
2018-08-30T13:10:24.712Z,26
2018-08-30T13:11:26.889Z,24
2018-08-30T13:12:28.979Z,28
2018-08-30T13:13:31.895Z,25
2018-08-30T13:14:34.106Z,22
2018-08-30T13:15:37.639Z,25
2018-08-30T13:16:40.614Z,26
2018-08-30T13:17:42.683Z,27
2018-08-30T13:18:45.558Z,26
2018-08-30T13:19:48.577Z,25
2018-08-30T13:20:50.873Z,25
2018-08-30T13:21:53.655Z,27
2018-08-30T13:22:56.428Z,24
2018-08-30T13:23:59.556Z,22
2018-08-30T13:25:01.778Z,23
2018-08-30T13:26:04.009Z,23
2018-08-30T13:27:06.890Z,24
2018-08-30T13:28:09.099Z,26
2018-08-30T13:29:11.200Z,27
2018-08-30T13:30:13.389Z,25
2018-08-30T13:31:17.008Z,19
2018-08-30T13:32:19.359Z,20
2018-08-30T13:33:22.839Z,18
2018-08-30T13:34:24.937Z,13
2018-08-30T13:35:28.683Z,13
2018-08-30T13:36:32.023Z,13
2018-08-30T13:37:34.133Z,11
2018-08-30T13:38:37.606Z,15
2018-08-30T13:39:40.704Z,16
2018-08-30T13:40:45.334Z,15
2018-08-30T13:41:48.485Z,23
2018-08-30T13:42:51.871Z,28
2018-08-30T13:43:55.327Z,30
2018-08-30T13:44:57.247Z,32
2018-08-30T13:45:59.245Z,35
2018-08-30T13:47:01.407Z,33
2018-08-30T13:48:03.548Z,23
2018-08-30T13:49:06.516Z,15
2018-08-30T13:50:09.917Z,15
2018-08-30T13:51:11.917Z,20
2018-08-30T13:52:13.938Z,25
2018-08-30T13:53:18.285Z,27
2018-08-30T13:54:20.348Z,25
2018-08-30T13:55:22.467Z,28
2018-08-30T13:56:25.904Z,23
2018-08-30T13:57:28.081Z,22
2018-08-30T13:58:31.542Z,22
2018-08-30T13:59:34.377Z,17
2018-08-30T14:00:39.276Z,14
2018-08-30T14:01:43.178Z,14
2018-08-30T14:02:45.387Z,17
2018-08-30T14:03:48.207Z,20
2018-08-30T14:04:50.439Z,24
2018-08-30T14:05:52.557Z,26
2018-08-30T14:06:54.598Z,26
2018-08-30T14:07:57.423Z,21
2018-08-30T14:08:59.617Z,18
2018-08-30T14:10:01.959Z,19
2018-08-30T14:11:06.293Z,15
2018-08-30T14:12:09.620Z,15
2018-08-30T14:13:11.523Z,14
2018-08-30T14:14:13.657Z,14
2018-08-30T14:15:15.938Z,12
2018-08-30T14:16:18.947Z,14
2018-08-30T14:17:21.356Z,11
2018-08-30T14:18:24.188Z,13
2018-08-30T14:19:26.286Z,13
2018-08-30T14:20:28.421Z,14
2018-08-30T14:21:30.525Z,16
2018-08-30T14:22:32.984Z,18
2018-08-30T14:23:35.103Z,15
2018-08-30T14:24:37.190Z,23
2018-08-30T14:25:39.335Z,27
2018-08-30T14:26:41.469Z,26
2018-08-30T14:27:43.485Z,25
2018-08-30T14:28:45.657Z,24
2018-08-30T14:29:47.699Z,24
2018-08-30T14:30:49.792Z,25
2018-08-30T14:31:52.242Z,28
2018-08-30T14:32:54.330Z,25
2018-08-30T14:33:56.439Z,27
2018-08-30T14:34:58.838Z,30
2018-08-30T14:36:00.935Z,24
2018-08-30T14:37:03.333Z,24
2018-08-30T14:38:06.528Z,19
2018-08-30T14:39:08.649Z,22
2018-08-30T14:40:11.226Z,22
2018-08-30T14:41:14.166Z,20
2018-08-30T14:42:16.241Z,20
2018-08-30T14:43:18.237Z,19
2018-08-30T14:44:20.247Z,17
2018-08-30T14:45:22.354Z,16
2018-08-30T14:46:24.433Z,17
2018-08-30T14:47:26.826Z,15
2018-08-30T14:48:28.637Z,18
2018-08-30T14:49:30.728Z,15
2018-08-30T14:50:32.826Z,13
2018-08-30T14:51:34.932Z,14
2018-08-30T14:52:37.028Z,10
2018-08-30T14:53:39.524Z,11
2018-08-30T14:54:42.349Z,10
2018-08-30T14:55:44.523Z,11
2018-08-30T14:56:47.475Z,12
2018-08-30T14:57:49.492Z,9
2018-08-30T14:58:51.580Z,11
2018-08-30T14:59:53.683Z,11
2018-08-30T15:00:55.798Z,11